sensor_id;sensor_type;location;lat;lon;timestamp;pressure;altitude;pressure_sealevel;temperature;humidity
34034;BME280;63481;52.588;22.472;2022-12-07T00:00:23;99546.13;;;-0.66;98.84
34034;BME280;63481;52.588;22.472;2022-12-07T00:01:17;99549.53;;;-0.65;98.87
34034;BME280;63481;52.588;22.472;2022-12-07T00:02:07;99544.81;;;-0.66;98.85
34034;BME280;63481;52.588;22.472;2022-12-07T00:02:58;99544.30;;;-0.65;98.86
34034;BME280;63481;52.588;22.472;2022-12-07T00:03:49;99546.92;;;-0.65;98.88
34034;BME280;63481;52.588;22.472;2022-12-07T00:04:41;99540.72;;;-0.64;98.88
34034;BME280;63481;52.588;22.472;2022-12-07T00:05:31;99539.06;;;-0.65;98.88
34034;BME280;63481;52.588;22.472;2022-12-07T00:06:21;99541.69;;;-0.65;98.88
34034;BME280;63481;52.588;22.472;2022-12-07T00:07:11;99545.61;;;-0.65;98.90
34034;BME280;63481;52.588;22.472;2022-12-07T00:08:02;99537.45;;;-0.62;98.92
34034;BME280;63481;52.588;22.472;2022-12-07T00:08:52;99535.48;;;-0.64;98.92
34034;BME280;63481;52.588;22.472;2022-12-07T00:09:45;99540.23;;;-0.64;98.91
34034;BME280;63481;52.588;22.472;2022-12-07T00:10:34;99542.86;;;-0.64;98.91
34034;BME280;63481;52.588;22.472;2022-12-07T00:11:25;99537.97;;;-0.63;98.91
34034;BME280;63481;52.588;22.472;2022-12-07T00:12:16;99538.10;;;-0.64;98.93
34034;BME280;63481;52.588;22.472;2022-12-07T00:13:06;99540.38;;;-0.65;98.92
34034;BME280;63481;52.588;22.472;2022-12-07T00:13:58;99538.10;;;-0.64;98.94
34034;BME280;63481;52.588;22.472;2022-12-07T00:14:49;99540.72;;;-0.64;98.97
34034;BME280;63481;52.588;22.472;2022-12-07T00:15:39;99541.20;;;-0.65;98.97
34034;BME280;63481;52.588;22.472;2022-12-07T00:16:31;99545.95;;;-0.64;99.00
34034;BME280;63481;52.588;22.472;2022-12-07T00:17:21;99541.06;;;-0.63;98.99
34034;BME280;63481;52.588;22.472;2022-12-07T00:18:11;99539.89;;;-0.65;99.00
34034;BME280;63481;52.588;22.472;2022-12-07T00:19:03;99548.58;;;-0.64;99.00
34034;BME280;63481;52.588;22.472;2022-12-07T00:19:53;99537.63;;;-0.64;99.01
34034;BME280;63481;52.588;22.472;2022-12-07T00:20:43;99536.45;;;-0.65;99.02
34034;BME280;63481;52.588;22.472;2022-12-07T00:21:34;99542.38;;;-0.63;99.03
34034;BME280;63481;52.588;22.472;2022-12-07T00:22:25;99535.48;;;-0.64;99.03
34034;BME280;63481;52.588;22.472;2022-12-07T00:23:15;99540.72;;;-0.64;99.05
34034;BME280;63481;52.588;22.472;2022-12-07T00:24:06;99536.66;;;-0.63;99.07
34034;BME280;63481;52.588;22.472;2022-12-07T00:24:56;99543.20;;;-0.63;99.08
34034;BME280;63481;52.588;22.472;2022-12-07T00:25:47;99537.97;;;-0.63;99.12
34034;BME280;63481;52.588;22.472;2022-12-07T00:26:40;99537.45;;;-0.62;99.13
34034;BME280;63481;52.588;22.472;2022-12-07T00:27:30;99534.04;;;-0.63;99.13
34034;BME280;63481;52.588;22.472;2022-12-07T00:28:20;99527.63;;;-0.64;99.15
34034;BME280;63481;52.588;22.472;2022-12-07T00:29:16;99540.23;;;-0.64;99.17
34034;BME280;63481;52.588;22.472;2022-12-07T00:30:07;99534.22;;;-0.60;99.18
34034;BME280;63481;52.588;22.472;2022-12-07T00:31:09;99532.22;;;-0.62;99.21
34034;BME280;63481;52.588;22.472;2022-12-07T00:32:02;99534.84;;;-0.62;99.22
34034;BME280;63481;52.588;22.472;2022-12-07T00:32:52;99530.42;;;-0.62;99.24
34034;BME280;63481;52.588;22.472;2022-12-07T00:33:42;99530.11;;;-0.63;99.26
34034;BME280;63481;52.588;22.472;2022-12-07T00:34:33;99533.88;;;-0.61;99.28
34034;BME280;63481;52.588;22.472;2022-12-07T00:35:23;99527.50;;;-0.63;99.31
34034;BME280;63481;52.588;22.472;2022-12-07T00:36:16;99531.91;;;-0.63;99.30
34034;BME280;63481;52.588;22.472;2022-12-07T00:37:06;99530.59;;;-0.63;99.34
34034;BME280;63481;52.588;22.472;2022-12-07T00:37:57;99529.77;;;-0.64;99.36
34034;BME280;63481;52.588;22.472;2022-12-07T00:38:47;99533.22;;;-0.63;99.38
34034;BME280;63481;52.588;22.472;2022-12-07T00:39:37;99529.77;;;-0.64;99.41
34034;BME280;63481;52.588;22.472;2022-12-07T00:40:28;99524.53;;;-0.64;99.43
34034;BME280;63481;52.588;22.472;2022-12-07T00:41:20;99522.88;;;-0.65;99.45
34034;BME280;63481;52.588;22.472;2022-12-07T00:42:10;99526.33;;;-0.64;99.51
34034;BME280;63481;52.588;22.472;2022-12-07T00:43:00;99521.91;;;-0.64;99.52
34034;BME280;63481;52.588;22.472;2022-12-07T00:43:51;99526.67;;;-0.63;99.55
34034;BME280;63481;52.588;22.472;2022-12-07T00:44:41;99521.09;;;-0.64;99.58
34034;BME280;63481;52.588;22.472;2022-12-07T00:45:31;99516.33;;;-0.65;99.61
34034;BME280;63481;52.588;22.472;2022-12-07T00:46:22;99521.25;;;-0.66;99.63
34034;BME280;63481;52.588;22.472;2022-12-07T00:47:12;99515.50;;;-0.65;99.70
34034;BME280;63481;52.588;22.472;2022-12-07T00:48:03;99515.38;;;-0.64;99.72
34034;BME280;63481;52.588;22.472;2022-12-07T00:48:53;99513.23;;;-0.64;99.76
34034;BME280;63481;52.588;22.472;2022-12-07T00:49:43;99518.13;;;-0.65;99.80
34034;BME280;63481;52.588;22.472;2022-12-07T00:50:34;99512.89;;;-0.65;99.83
34034;BME280;63481;52.588;22.472;2022-12-07T00:51:25;99510.27;;;-0.65;99.87
34034;BME280;63481;52.588;22.472;2022-12-07T00:52:15;99508.96;;;-0.65;99.90
34034;BME280;63481;52.588;22.472;2022-12-07T00:53:05;99520.42;;;-0.66;99.96
34034;BME280;63481;52.588;22.472;2022-12-07T00:53:55;99511.27;;;-0.66;99.98
34034;BME280;63481;52.588;22.472;2022-12-07T00:54:45;99514.02;;;-0.68;100.00
34034;BME280;63481;52.588;22.472;2022-12-07T00:55:36;99504.72;;;-0.66;100.00
34034;BME280;63481;52.588;22.472;2022-12-07T00:56:27;99506.86;;;-0.66;100.00
34034;BME280;63481;52.588;22.472;2022-12-07T00:57:18;99506.51;;;-0.67;100.00
34034;BME280;63481;52.588;22.472;2022-12-07T00:58:08;99508.48;;;-0.65;100.00
34034;BME280;63481;52.588;22.472;2022-12-07T00:59:01;99508.96;;;-0.65;100.00
34034;BME280;63481;52.588;22.472;2022-12-07T00:59:52;99504.72;;;-0.66;100.00
34034;BME280;63481;52.588;22.472;2022-12-07T01:00:44;99499.13;;;-0.67;100.00
34034;BME280;63481;52.588;22.472;2022-12-07T01:01:36;99503.89;;;-0.67;100.00
34034;BME280;63481;52.588;22.472;2022-12-07T01:02:26;99505.20;;;-0.67;100.00
34034;BME280;63481;52.588;22.472;2022-12-07T01:03:17;99499.13;;;-0.67;100.00
34034;BME280;63481;52.588;22.472;2022-12-07T01:04:07;99503.41;;;-0.66;100.00
34034;BME280;63481;52.588;22.472;2022-12-07T01:04:57;99500.79;;;-0.66;100.00
34034;BME280;63481;52.588;22.472;2022-12-07T01:05:52;99493.42;;;-0.67;100.00
34034;BME280;63481;52.588;22.472;2022-12-07T01:06:43;99489.97;;;-0.67;100.00
34034;BME280;63481;52.588;22.472;2022-12-07T01:07:33;99495.87;;;-0.65;100.00
34034;BME280;63481;52.588;22.472;2022-12-07T01:08:25;99493.90;;;-0.67;100.00
34034;BME280;63481;52.588;22.472;2022-12-07T01:09:16;99491.63;;;-0.66;100.00
34034;BME280;63481;52.588;22.472;2022-12-07T01:10:06;99497.34;;;-0.67;100.00
34034;BME280;63481;52.588;22.472;2022-12-07T01:11:06;99489.97;;;-0.67;100.00
34034;BME280;63481;52.588;22.472;2022-12-07T01:11:56;99487.22;;;-0.66;100.00
34034;BME280;63481;52.588;22.472;2022-12-07T01:12:46;99479.50;;;-0.67;100.00
34034;BME280;63481;52.588;22.472;2022-12-07T01:13:36;99488.18;;;-0.67;100.00
34034;BME280;63481;52.588;22.472;2022-12-07T01:14:28;99483.77;;;-0.66;100.00
34034;BME280;63481;52.588;22.472;2022-12-07T01:15:18;99480.81;;;-0.67;100.00
34034;BME280;63481;52.588;22.472;2022-12-07T01:16:10;99490.31;;;-0.66;100.00
34034;BME280;63481;52.588;22.472;2022-12-07T01:17:02;99490.31;;;-0.66;100.00
34034;BME280;63481;52.588;22.472;2022-12-07T01:17:52;99487.70;;;-0.66;100.00
34034;BME280;63481;52.588;22.472;2022-12-07T01:18:47;99487.36;;;-0.67;100.00
34034;BME280;63481;52.588;22.472;2022-12-07T01:19:37;99487.22;;;-0.66;100.00
34034;BME280;63481;52.588;22.472;2022-12-07T01:20:29;99485.91;;;-0.66;100.00
34034;BME280;63481;52.588;22.472;2022-12-07T01:21:28;99483.29;;;-0.66;100.00
34034;BME280;63481;52.588;22.472;2022-12-07T01:22:18;99485.08;;;-0.66;100.00
34034;BME280;63481;52.588;22.472;2022-12-07T01:23:09;99482.78;;;-0.65;100.00
34034;BME280;63481;52.588;22.472;2022-12-07T01:23:59;99480.67;;;-0.66;100.00
34034;BME280;63481;52.588;22.472;2022-12-07T01:24:49;99486.70;;;-0.65;100.00
34034;BME280;63481;52.588;22.472;2022-12-07T01:25:39;99481.16;;;-0.66;100.00
34034;BME280;63481;52.588;22.472;2022-12-07T01:26:29;99475.44;;;-0.66;100.00
34034;BME280;63481;52.588;22.472;2022-12-07T01:27:21;99478.53;;;-0.66;100.00
34034;BME280;63481;52.588;22.472;2022-12-07T01:28:11;99479.36;;;-0.66;100.00
34034;BME280;63481;52.588;22.472;2022-12-07T01:29:02;99476.23;;;-0.65;100.00
34034;BME280;63481;52.588;22.472;2022-12-07T01:29:52;99470.20;;;-0.66;100.00
34034;BME280;63481;52.588;22.472;2022-12-07T01:30:42;99471.83;;;-0.65;100.00
34034;BME280;63481;52.588;22.472;2022-12-07T01:31:32;99473.96;;;-0.64;100.00
34034;BME280;63481;52.588;22.472;2022-12-07T01:32:23;99471.69;;;-0.63;100.00
34034;BME280;63481;52.588;22.472;2022-12-07T01:33:15;99473.13;;;-0.65;100.00
34034;BME280;63481;52.588;22.472;2022-12-07T01:34:05;99468.24;;;-0.64;100.00
34034;BME280;63481;52.588;22.472;2022-12-07T01:34:55;99470.38;;;-0.63;100.00
34034;BME280;63481;52.588;22.472;2022-12-07T01:35:47;99469.07;;;-0.63;100.00
34034;BME280;63481;52.588;22.472;2022-12-07T01:36:37;99466.45;;;-0.63;100.00
34034;BME280;63481;52.588;22.472;2022-12-07T01:37:27;99469.90;;;-0.63;100.00
34034;BME280;63481;52.588;22.472;2022-12-07T01:38:19;99470.86;;;-0.64;100.00
34034;BME280;63481;52.588;22.472;2022-12-07T01:39:09;99468.08;;;-0.62;100.00
34034;BME280;63481;52.588;22.472;2022-12-07T01:40:00;99462.05;;;-0.63;100.00
34034;BME280;63481;52.588;22.472;2022-12-07T01:40:55;99465.14;;;-0.63;100.00
34034;BME280;63481;52.588;22.472;2022-12-07T01:41:45;99464.66;;;-0.63;100.00
34034;BME280;63481;52.588;22.472;2022-12-07T01:42:35;99465.98;;;-0.58;100.00
34034;BME280;63481;52.588;22.472;2022-12-07T01:43:28;99461.05;;;-0.62;100.00
34034;BME280;63481;52.588;22.472;2022-12-07T01:45:41;99457.12;;;-0.62;100.00
34034;BME280;63481;52.588;22.472;2022-12-07T01:46:24;99457.47;;;-0.61;100.00
34034;BME280;63481;52.588;22.472;2022-12-07T01:47:14;99458.42;;;-0.62;100.00
34034;BME280;63481;52.588;22.472;2022-12-07T01:48:04;99456.29;;;-0.62;100.00
34034;BME280;63481;52.588;22.472;2022-12-07T01:48:55;99449.75;;;-0.62;100.00
34034;BME280;63481;52.588;22.472;2022-12-07T01:49:47;99457.47;;;-0.61;100.00
34034;BME280;63481;52.588;22.472;2022-12-07T01:50:38;99452.23;;;-0.61;100.00
34034;BME280;63481;52.588;22.472;2022-12-07T01:51:30;99454.84;;;-0.61;100.00
34034;BME280;63481;52.588;22.472;2022-12-07T01:52:29;99458.77;;;-0.61;100.00
34034;BME280;63481;52.588;22.472;2022-12-07T01:53:17;99455.16;;;-0.60;100.00
34034;BME280;63481;52.588;22.472;2022-12-07T01:54:08;99455.67;;;-0.60;100.00
34034;BME280;63481;52.588;22.472;2022-12-07T01:55:02;99454.36;;;-0.60;100.00
34034;BME280;63481;52.588;22.472;2022-12-07T01:55:54;99445.69;;;-0.61;100.00
34034;BME280;63481;52.588;22.472;2022-12-07T01:56:49;99451.23;;;-0.60;100.00
34034;BME280;63481;52.588;22.472;2022-12-07T01:57:43;99448.78;;;-0.61;100.00
34034;BME280;63481;52.588;22.472;2022-12-07T01:58:33;99448.61;;;-0.60;100.00
34034;BME280;63481;52.588;22.472;2022-12-07T01:59:24;99444.20;;;-0.59;100.00
34034;BME280;63481;52.588;22.472;2022-12-07T02:00:16;99449.44;;;-0.59;100.00
34034;BME280;63481;52.588;22.472;2022-12-07T02:01:06;99442.89;;;-0.59;100.00
34034;BME280;63481;52.588;22.472;2022-12-07T02:01:56;99444.20;;;-0.59;100.00
34034;BME280;63481;52.588;22.472;2022-12-07T02:03:11;99449.44;;;-0.59;100.00
34034;BME280;63481;52.588;22.472;2022-12-07T02:03:58;99449.44;;;-0.59;100.00
34034;BME280;63481;52.588;22.472;2022-12-07T02:04:49;99445.03;;;-0.58;100.00
34034;BME280;63481;52.588;22.472;2022-12-07T02:05:41;99443.72;;;-0.58;100.00
34034;BME280;63481;52.588;22.472;2022-12-07T02:06:31;99444.20;;;-0.59;100.00
34034;BME280;63481;52.588;22.472;2022-12-07T02:07:22;99441.59;;;-0.59;100.00
34034;BME280;63481;52.588;22.472;2022-12-07T02:08:13;99441.59;;;-0.59;100.00
34034;BME280;63481;52.588;22.472;2022-12-07T02:09:04;99440.28;;;-0.59;100.00
34034;BME280;63481;52.588;22.472;2022-12-07T02:09:54;99438.00;;;-0.58;100.00
34034;BME280;63481;52.588;22.472;2022-12-07T02:10:44;99437.17;;;-0.58;100.00
34034;BME280;63481;52.588;22.472;2022-12-07T02:11:34;99441.59;;;-0.59;100.00
34034;BME280;63481;52.588;22.472;2022-12-07T02:12:26;99436.22;;;-0.57;100.00
34034;BME280;63481;52.588;22.472;2022-12-07T02:13:24;99440.14;;;-0.57;100.00
34034;BME280;63481;52.588;22.472;2022-12-07T02:14:15;99440.14;;;-0.57;100.00
34034;BME280;63481;52.588;22.472;2022-12-07T02:15:06;99438.00;;;-0.58;100.00
34034;BME280;63481;52.588;22.472;2022-12-07T02:17:12;99437.84;;;-0.56;100.00
34034;BME280;63481;52.588;22.472;2022-12-07T02:20:57;99436.05;;;-0.56;100.00
34034;BME280;63481;52.588;22.472;2022-12-07T02:21:59;99441.77;;;-0.56;100.00
34034;BME280;63481;52.588;22.472;2022-12-07T02:27:50;99439.31;;;-0.54;100.00
34034;BME280;63481;52.588;22.472;2022-12-07T02:29:09;99440.97;;;-0.53;100.00
34034;BME280;63481;52.588;22.472;2022-12-07T02:31:10;99435.39;;;-0.54;100.00
34034;BME280;63481;52.588;22.472;2022-12-07T02:32:10;99438.01;;;-0.54;100.00
34034;BME280;63481;52.588;22.472;2022-12-07T02:33:12;99435.39;;;-0.54;100.00
34034;BME280;63481;52.588;22.472;2022-12-07T02:34:32;99436.70;;;-0.54;100.00
34034;BME280;63481;52.588;22.472;2022-12-07T02:35:07;99435.73;;;-0.53;100.00
34034;BME280;63481;52.588;22.472;2022-12-07T02:36:02;99431.81;;;-0.53;100.00
34034;BME280;63481;52.588;22.472;2022-12-07T02:36:56;99430.98;;;-0.53;100.00
34034;BME280;63481;52.588;22.472;2022-12-07T02:39:43;99428.36;;;-0.53;100.00
34034;BME280;63481;52.588;22.472;2022-12-07T02:41:33;99422.30;;;-0.54;100.00
34034;BME280;63481;52.588;22.472;2022-12-07T02:42:27;99421.81;;;-0.53;100.00
34034;BME280;63481;52.588;22.472;2022-12-07T02:43:39;99421.81;;;-0.53;100.00
34034;BME280;63481;52.588;22.472;2022-12-07T02:44:15;99414.44;;;-0.54;100.00
34034;BME280;63481;52.588;22.472;2022-12-07T02:45:07;99417.89;;;-0.53;100.00
34034;BME280;63481;52.588;22.472;2022-12-07T02:46:04;99415.75;;;-0.54;100.00
34034;BME280;63481;52.588;22.472;2022-12-07T02:46:57;99413.13;;;-0.54;100.00
34034;BME280;63481;52.588;22.472;2022-12-07T02:47:51;99411.34;;;-0.53;100.00
34034;BME280;63481;52.588;22.472;2022-12-07T02:48:43;99409.20;;;-0.54;100.00
34034;BME280;63481;52.588;22.472;2022-12-07T02:49:33;99413.00;;;-0.52;100.00
34034;BME280;63481;52.588;22.472;2022-12-07T02:50:25;99409.07;;;-0.52;100.00
34034;BME280;63481;52.588;22.472;2022-12-07T02:51:18;99410.86;;;-0.53;100.00
34034;BME280;63481;52.588;22.472;2022-12-07T02:52:08;99406.59;;;-0.54;100.00
34034;BME280;63481;52.588;22.472;2022-12-07T02:52:58;99408.90;;;-0.51;100.00
34034;BME280;63481;52.588;22.472;2022-12-07T02:53:49;99403.00;;;-0.53;100.00
34034;BME280;63481;52.588;22.472;2022-12-07T02:54:39;99400.73;;;-0.52;100.00
34034;BME280;63481;52.588;22.472;2022-12-07T02:55:34;99403.83;;;-0.52;100.00
34034;BME280;63481;52.588;22.472;2022-12-07T02:56:39;99401.21;;;-0.52;100.00
34034;BME280;63481;52.588;22.472;2022-12-07T02:58:45;99392.88;;;-0.52;100.00
34034;BME280;63481;52.588;22.472;2022-12-07T03:00:44;99395.80;;;-0.51;100.00
34034;BME280;63481;52.588;22.472;2022-12-07T03:01:55;99385.16;;;-0.53;100.00
34034;BME280;63481;52.588;22.472;2022-12-07T03:03:00;99389.56;;;-0.54;100.00
34034;BME280;63481;52.588;22.472;2022-12-07T03:03:58;99387.64;;;-0.52;100.00
34034;BME280;63481;52.588;22.472;2022-12-07T03:06:56;99388.43;;;-0.51;100.00
34034;BME280;63481;52.588;22.472;2022-12-07T03:08:57;99385.81;;;-0.51;100.00
34034;BME280;63481;52.588;22.472;2022-12-07T03:09:50;99388.30;;;-0.50;100.00
34034;BME280;63481;52.588;22.472;2022-12-07T03:11:01;99385.50;;;-0.52;100.00
34034;BME280;63481;52.588;22.472;2022-12-07T03:13:02;99386.81;;;-0.52;100.00
34034;BME280;63481;52.588;22.472;2022-12-07T03:14:08;99394.98;;;-0.51;100.00
34034;BME280;63481;52.588;22.472;2022-12-07T03:15:01;99393.19;;;-0.51;100.00
34034;BME280;63481;52.588;22.472;2022-12-07T03:17:19;99387.12;;;-0.51;100.00
34034;BME280;63481;52.588;22.472;2022-12-07T03:18:11;99385.02;;;-0.52;100.00
34034;BME280;63481;52.588;22.472;2022-12-07T03:19:06;99388.12;;;-0.48;100.00
34034;BME280;63481;52.588;22.472;2022-12-07T03:19:58;99384.20;;;-0.48;100.00
34034;BME280;63481;52.588;22.472;2022-12-07T03:20:50;99385.67;;;-0.50;100.00
34034;BME280;63481;52.588;22.472;2022-12-07T03:21:47;99388.61;;;-0.49;100.00
34034;BME280;63481;52.588;22.472;2022-12-07T03:22:39;99382.58;;;-0.49;100.00
34034;BME280;63481;52.588;22.472;2022-12-07T03:23:33;99381.75;;;-0.50;100.00
34034;BME280;63481;52.588;22.472;2022-12-07T03:24:28;99379.12;;;-0.50;100.00
34034;BME280;63481;52.588;22.472;2022-12-07T03:25:18;99384.02;;;-0.51;100.00
34034;BME280;63481;52.588;22.472;2022-12-07T03:26:10;99376.52;;;-0.50;100.00
34034;BME280;63481;52.588;22.472;2022-12-07T03:27:04;99383.37;;;-0.49;100.00
34034;BME280;63481;52.588;22.472;2022-12-07T03:28:01;99374.38;;;-0.50;100.00
34034;BME280;63481;52.588;22.472;2022-12-07T03:28:54;99373.41;;;-0.49;100.00
34034;BME280;63481;52.588;22.472;2022-12-07T03:29:52;99376.17;;;-0.51;100.00
34034;BME280;63481;52.588;22.472;2022-12-07T03:30:48;99366.03;;;-0.50;100.00
34034;BME280;63481;52.588;22.472;2022-12-07T03:31:41;99371.92;;;-0.48;100.00
34034;BME280;63481;52.588;22.472;2022-12-07T03:32:41;99373.09;;;-0.46;100.00
34034;BME280;63481;52.588;22.472;2022-12-07T03:33:35;99378.47;;;-0.48;100.00
34034;BME280;63481;52.588;22.472;2022-12-07T03:34:32;99369.79;;;-0.48;100.00
34034;BME280;63481;52.588;22.472;2022-12-07T03:35:27;99372.89;;;-0.49;100.00
34034;BME280;63481;52.588;22.472;2022-12-07T03:36:32;99368.17;;;-0.49;100.00
34034;BME280;63481;52.588;22.472;2022-12-07T03:37:34;99366.86;;;-0.49;100.00
34034;BME280;63481;52.588;22.472;2022-12-07T03:38:31;99368.66;;;-0.50;100.00
34034;BME280;63481;52.588;22.472;2022-12-07T03:39:33;99367.66;;;-0.49;100.00
34034;BME280;63481;52.588;22.472;2022-12-07T03:40:30;99369.79;;;-0.48;100.00
34034;BME280;63481;52.588;22.472;2022-12-07T03:41:26;99366.20;;;-0.47;100.00
34034;BME280;63481;52.588;22.472;2022-12-07T03:42:16;99363.59;;;-0.47;100.00
34034;BME280;63481;52.588;22.472;2022-12-07T03:43:07;99369.66;;;-0.47;100.00
34034;BME280;63481;52.588;22.472;2022-12-07T03:43:57;99369.17;;;-0.46;100.00
34034;BME280;63481;52.588;22.472;2022-12-07T03:44:48;99363.41;;;-0.46;100.00
34034;BME280;63481;52.588;22.472;2022-12-07T03:45:41;99359.48;;;-0.46;100.00
34034;BME280;63481;52.588;22.472;2022-12-07T03:47:53;99356.56;;;-0.43;100.00
34034;BME280;63481;52.588;22.472;2022-12-07T03:49:58;99360.00;;;-0.42;100.00
34034;BME280;63481;52.588;22.472;2022-12-07T03:51:05;99355.94;;;-0.41;100.00
34034;BME280;63481;52.588;22.472;2022-12-07T03:53:20;99356.41;;;-0.37;100.00
34034;BME280;63481;52.588;22.472;2022-12-07T03:54:18;99356.78;;;-0.28;100.00
34034;BME280;63481;52.588;22.472;2022-12-07T03:56:21;99351.52;;;-0.36;100.00
34034;BME280;63481;52.588;22.472;2022-12-07T03:57:12;99351.03;;;-0.36;100.00
34034;BME280;63481;52.588;22.472;2022-12-07T03:58:09;99350.38;;;-0.34;100.00
34034;BME280;63481;52.588;22.472;2022-12-07T03:58:59;99346.59;;;-0.35;100.00
34034;BME280;63481;52.588;22.472;2022-12-07T03:59:50;99346.77;;;-0.37;100.00
34034;BME280;63481;52.588;22.472;2022-12-07T04:00:42;99345.28;;;-0.35;100.00
34034;BME280;63481;52.588;22.472;2022-12-07T04:01:32;99346.28;;;-0.36;100.00
34034;BME280;63481;52.588;22.472;2022-12-07T04:02:23;99346.28;;;-0.36;100.00
34034;BME280;63481;52.588;22.472;2022-12-07T04:03:15;99340.22;;;-0.37;100.00
34034;BME280;63481;52.588;22.472;2022-12-07T04:04:05;99349.72;;;-0.32;100.00
34034;BME280;63481;52.588;22.472;2022-12-07T04:04:55;99344.66;;;-0.33;100.00
34034;BME280;63481;52.588;22.472;2022-12-07T04:05:46;99349.89;;;-0.29;100.00
34034;BME280;63481;52.588;22.472;2022-12-07T04:06:36;99347.28;;;-0.33;100.00
34034;BME280;63481;52.588;22.472;2022-12-07T04:07:26;99344.14;;;-0.37;100.00
34034;BME280;63481;52.588;22.472;2022-12-07T04:08:16;99345.94;;;-0.37;100.00
34034;BME280;63481;52.588;22.472;2022-12-07T04:09:06;99344.45;;;-0.40;100.00
34034;BME280;63481;52.588;22.472;2022-12-07T04:09:56;99348.08;;;-0.41;100.00
34034;BME280;63481;52.588;22.472;2022-12-07T04:10:45;99345.94;;;-0.41;100.00
34034;BME280;63481;52.588;22.472;2022-12-07T04:11:36;99345.45;;;-0.41;100.00
34034;BME280;63481;52.588;22.472;2022-12-07T04:12:26;99339.88;;;-0.42;100.00
34034;BME280;63481;52.588;22.472;2022-12-07T04:13:16;99342.50;;;-0.42;100.00
34034;BME280;63481;52.588;22.472;2022-12-07T04:14:06;99345.11;;;-0.42;100.00
34034;BME280;63481;52.588;22.472;2022-12-07T04:15:08;99341.19;;;-0.42;100.00
34034;BME280;63481;52.588;22.472;2022-12-07T04:16:07;99341.19;;;-0.42;100.00
34034;BME280;63481;52.588;22.472;2022-12-07T04:16:58;99340.02;;;-0.43;100.00
34034;BME280;63481;52.588;22.472;2022-12-07T04:17:49;99340.36;;;-0.42;100.00
34034;BME280;63481;52.588;22.472;2022-12-07T04:18:41;99341.67;;;-0.42;100.00
34034;BME280;63481;52.588;22.472;2022-12-07T04:19:32;99338.70;;;-0.43;100.00
34034;BME280;63481;52.588;22.472;2022-12-07T04:20:23;99338.56;;;-0.42;100.00
34034;BME280;63481;52.588;22.472;2022-12-07T04:21:13;99339.53;;;-0.43;100.00
34034;BME280;63481;52.588;22.472;2022-12-07T04:22:04;99337.26;;;-0.42;100.00
34034;BME280;63481;52.588;22.472;2022-12-07T04:22:55;99338.91;;;-0.41;100.00
34034;BME280;63481;52.588;22.472;2022-12-07T04:23:44;99338.08;;;-0.37;100.00
34034;BME280;63481;52.588;22.472;2022-12-07T04:24:35;99339.25;;;-0.36;100.00
34034;BME280;63481;52.588;22.472;2022-12-07T04:25:25;99335.32;;;-0.36;100.00
34034;BME280;63481;52.588;22.472;2022-12-07T04:26:15;99332.05;;;-0.34;100.00
34034;BME280;63481;52.588;22.472;2022-12-07T04:27:05;99339.08;;;-0.34;100.00
34034;BME280;63481;52.588;22.472;2022-12-07T04:27:55;99326.16;;;-0.36;100.00
34034;BME280;63481;52.588;22.472;2022-12-07T04:28:45;99333.50;;;-0.39;100.00
34034;BME280;63481;52.588;22.472;2022-12-07T04:29:35;99328.74;;;-0.40;100.00
34034;BME280;63481;52.588;22.472;2022-12-07T04:30:25;99334.16;;;-0.41;100.00
34034;BME280;63481;52.588;22.472;2022-12-07T04:31:16;99331.70;;;-0.39;100.00
34034;BME280;63481;52.588;22.472;2022-12-07T04:32:05;99330.70;;;-0.38;100.00
34034;BME280;63481;52.588;22.472;2022-12-07T04:32:56;99329.40;;;-0.38;100.00
34034;BME280;63481;52.588;22.472;2022-12-07T04:33:45;99330.56;;;-0.32;100.00
34034;BME280;63481;52.588;22.472;2022-12-07T04:34:35;99327.29;;;-0.34;100.00
34034;BME280;63481;52.588;22.472;2022-12-07T04:35:25;99330.08;;;-0.36;100.00
34034;BME280;63481;52.588;22.472;2022-12-07T04:36:15;99326.64;;;-0.36;100.00
34034;BME280;63481;52.588;22.472;2022-12-07T04:37:05;99326.46;;;-0.35;100.00
34034;BME280;63481;52.588;22.472;2022-12-07T04:37:56;99322.53;;;-0.35;100.00
34034;BME280;63481;52.588;22.472;2022-12-07T04:38:46;99321.56;;;-0.30;100.00
34034;BME280;63481;52.588;22.472;2022-12-07T04:39:36;99328.11;;;-0.30;100.00
34034;BME280;63481;52.588;22.472;2022-12-07T04:40:26;99322.87;;;-0.34;100.00
34034;BME280;63481;52.588;22.472;2022-12-07T04:41:16;99322.70;;;-0.32;100.00
34034;BME280;63481;52.588;22.472;2022-12-07T04:42:06;99321.23;;;-0.35;100.00
34034;BME280;63481;52.588;22.472;2022-12-07T04:42:56;99323.36;;;-0.34;100.00
34034;BME280;63481;52.588;22.472;2022-12-07T04:43:46;99320.09;;;-0.36;100.00
34034;BME280;63481;52.588;22.472;2022-12-07T04:44:36;99323.02;;;-0.35;100.00
34034;BME280;63481;52.588;22.472;2022-12-07T04:45:26;99314.05;;;-0.33;100.00
34034;BME280;63481;52.588;22.472;2022-12-07T04:46:16;99319.29;;;-0.33;100.00
34034;BME280;63481;52.588;22.472;2022-12-07T04:47:06;99323.36;;;-0.34;100.00
34034;BME280;63481;52.588;22.472;2022-12-07T04:47:56;99314.36;;;-0.32;100.00
34034;BME280;63481;52.588;22.472;2022-12-07T04:48:46;99316.67;;;-0.33;100.00
34034;BME280;63481;52.588;22.472;2022-12-07T04:49:38;99314.53;;;-0.33;100.00
34034;BME280;63481;52.588;22.472;2022-12-07T04:50:28;99317.95;;;-0.37;100.00
34034;BME280;63481;52.588;22.472;2022-12-07T04:51:21;99318.30;;;-0.36;100.00
34034;BME280;63481;52.588;22.472;2022-12-07T04:52:12;99310.09;;;-0.37;100.00
34034;BME280;63481;52.588;22.472;2022-12-07T04:53:02;99313.38;;;-0.39;100.00
34034;BME280;63481;52.588;22.472;2022-12-07T04:53:53;99313.06;;;-0.36;100.00
34034;BME280;63481;52.588;22.472;2022-12-07T04:54:42;99311.74;;;-0.32;100.00
34034;BME280;63481;52.588;22.472;2022-12-07T04:55:32;99308.16;;;-0.31;100.00
34034;BME280;63481;52.588;22.472;2022-12-07T04:56:24;99318.14;;;-0.26;100.00
34034;BME280;63481;52.588;22.472;2022-12-07T04:57:14;99314.05;;;-0.29;100.00
34034;BME280;63481;52.588;22.472;2022-12-07T04:58:04;99315.02;;;-0.30;100.00